createdAt,value
2023-04-16T00:01:18.822Z,17.70
2023-04-16T00:03:47.665Z,18.30
2023-04-16T00:06:16.198Z,17.20
2023-04-16T00:08:46.835Z,17.00
2023-04-16T00:13:45.438Z,18.70
2023-04-16T00:16:14.034Z,17.10
2023-04-16T00:18:42.401Z,17.40
2023-04-16T00:21:10.988Z,18.30
2023-04-16T00:23:39.378Z,20.50
2023-04-16T00:26:08.990Z,19.50
2023-04-16T00:28:37.569Z,18.90
2023-04-16T00:31:06.136Z,19.70
2023-04-16T00:33:34.739Z,21.40
2023-04-16T00:36:05.457Z,20.50
2023-04-16T00:38:34.156Z,20.00
2023-04-16T00:41:02.738Z,21.50
2023-04-16T00:43:32.038Z,20.80
2023-04-16T00:46:00.625Z,19.00
2023-04-16T00:48:32.078Z,21.00
2023-04-16T00:51:01.895Z,21.40
2023-04-16T00:55:59.266Z,20.30
2023-04-16T00:58:28.158Z,21.30
2023-04-16T01:00:57.051Z,23.60
2023-04-16T01:03:27.673Z,22.40
2023-04-16T01:05:56.280Z,21.10
2023-04-16T01:08:25.877Z,23.20
2023-04-16T01:10:54.258Z,25.80
2023-04-16T01:13:22.845Z,23.10
2023-04-16T01:15:51.666Z,21.60
2023-04-16T01:18:21.487Z,22.90
2023-04-16T01:20:51.376Z,24.20
2023-04-16T01:23:20.161Z,22.60
2023-04-16T01:25:48.749Z,23.00
2023-04-16T01:28:17.535Z,23.70
2023-04-16T01:30:46.018Z,24.00
2023-04-16T01:33:41.332Z,22.80
2023-04-16T01:36:10.117Z,23.40
2023-04-16T01:38:39.211Z,24.80
2023-04-16T01:41:08.001Z,22.80
2023-04-16T01:43:38.467Z,21.80
2023-04-16T01:46:19.327Z,25.80
2023-04-16T01:48:47.790Z,26.00
2023-04-16T01:51:16.786Z,24.30
2023-04-16T01:53:46.284Z,18.20
2023-04-16T01:56:14.671Z,25.90
2023-04-16T01:58:43.260Z,26.20
2023-04-16T02:01:13.339Z,23.30
2023-04-16T02:03:42.369Z,24.40
2023-04-16T02:06:11.362Z,25.10
2023-04-16T02:08:39.845Z,25.10
2023-04-16T02:11:08.688Z,23.40
2023-04-16T02:13:37.628Z,24.90
2023-04-16T02:16:06.651Z,26.00
2023-04-16T02:18:45.069Z,25.90
2023-04-16T02:21:14.554Z,24.50
2023-04-16T02:23:46.078Z,25.50
2023-04-16T02:26:14.472Z,25.80
2023-04-16T02:28:43.263Z,23.10
2023-04-16T02:31:12.159Z,25.00
2023-04-16T02:33:45.248Z,25.60
2023-04-16T02:36:13.832Z,25.10
2023-04-16T02:38:42.208Z,24.10
2023-04-16T02:41:10.691Z,25.70
2023-04-16T02:43:39.175Z,25.70
2023-04-16T02:46:07.706Z,23.50
2023-04-16T02:48:36.349Z,23.30
2023-04-16T02:51:05.079Z,23.00
2023-04-16T02:53:33.722Z,24.90
2023-04-16T02:56:02.154Z,24.80
2023-04-16T02:58:30.890Z,23.50
2023-04-16T03:00:59.600Z,23.30
2023-04-16T03:03:28.413Z,24.10
2023-04-16T03:05:56.863Z,24.20
2023-04-16T03:08:26.868Z,21.90
2023-04-16T03:10:55.355Z,22.40
2023-04-16T03:13:23.830Z,25.20
2023-04-16T03:15:52.278Z,22.70
2023-04-16T03:18:21.006Z,22.70
2023-04-16T03:20:54.300Z,23.50
2023-04-16T03:23:23.500Z,22.80
2023-04-16T03:25:52.491Z,21.70
2023-04-16T03:28:21.468Z,23.40
2023-04-16T03:30:53.568Z,23.50
2023-04-16T03:33:23.780Z,21.90
2023-04-16T03:35:58.916Z,20.70
2023-04-16T03:38:29.754Z,21.40
2023-04-16T03:40:59.066Z,23.10
2023-04-16T03:43:27.740Z,22.00
2023-04-16T03:45:56.119Z,20.30
2023-04-16T03:48:25.016Z,21.10
2023-04-16T03:50:54.208Z,21.40
2023-04-16T03:53:23.839Z,19.90
2023-04-16T03:55:52.616Z,19.80
2023-04-16T03:58:22.034Z,21.10
2023-04-16T04:00:52.144Z,20.60
2023-04-16T04:03:21.546Z,18.90
2023-04-16T04:05:50.948Z,20.30
2023-04-16T04:08:31.817Z,20.80
2023-04-16T04:11:00.308Z,19.00
2023-04-16T04:13:29.292Z,18.80
2023-04-16T04:15:57.893Z,19.30
2023-04-16T04:18:28.306Z,20.70
2023-04-16T04:20:57.511Z,19.10
2023-04-16T04:23:28.445Z,17.60
2023-04-16T04:25:56.849Z,18.80
2023-04-16T04:28:26.439Z,17.90
2023-04-16T04:30:56.252Z,17.70
2023-04-16T04:35:24.549Z,19.20
2023-04-16T04:37:54.045Z,16.10
2023-04-16T04:40:23.043Z,16.70
2023-04-16T04:42:53.772Z,18.20
2023-04-16T04:47:55.880Z,17.10
2023-04-16T04:50:24.345Z,15.90
2023-04-16T04:52:53.030Z,15.90
2023-04-16T04:55:21.415Z,16.30
2023-04-16T04:57:50.228Z,15.20
2023-04-16T05:00:18.785Z,15.30
2023-04-16T05:02:53.815Z,14.90
2023-04-16T05:05:22.868Z,16.20
2023-04-16T05:07:51.606Z,14.50
2023-04-16T05:10:20.001Z,14.10
2023-04-16T05:12:49.075Z,15.10
2023-04-16T05:15:17.872Z,15.00
2023-04-16T05:17:46.712Z,13.10
2023-04-16T05:20:15.361Z,13.40
2023-04-16T05:22:44.103Z,12.80
2023-04-16T05:25:12.625Z,14.40
2023-04-16T05:27:41.621Z,12.30
2023-04-16T05:30:10.930Z,12.70
2023-04-16T05:32:40.082Z,13.00
2023-04-16T05:35:09.837Z,12.80
2023-04-16T05:37:38.210Z,11.80
2023-04-16T05:40:07.443Z,12.40
2023-04-16T05:42:37.630Z,12.20
2023-04-16T05:45:07.166Z,11.50
2023-04-16T05:47:36.136Z,11.70
2023-04-16T05:50:05.184Z,11.70
2023-04-16T05:52:33.817Z,12.90
2023-04-16T05:55:02.235Z,10.40
2023-04-16T05:57:30.979Z,10.80
2023-04-16T05:59:59.366Z,10.70
2023-04-16T06:02:28.199Z,10.00
2023-04-16T06:04:56.833Z,10.00
2023-04-16T06:07:25.626Z,10.10
2023-04-16T06:09:54.214Z,10.20
2023-04-16T06:12:22.699Z,10.10
2023-04-16T06:14:51.394Z,9.90
2023-04-16T06:17:20.263Z,9.30
2023-04-16T06:19:48.592Z,9.70
2023-04-16T06:22:18.158Z,9.80
2023-04-16T06:24:46.848Z,8.90
2023-04-16T06:27:15.332Z,9.10
2023-04-16T06:29:43.820Z,9.20
2023-04-16T06:32:12.192Z,9.80
2023-04-16T06:34:41.803Z,8.80
2023-04-16T06:37:10.807Z,8.40
2023-04-16T06:39:39.282Z,9.30
2023-04-16T06:42:08.065Z,8.90
2023-04-16T06:44:36.757Z,8.80
2023-04-16T06:47:05.674Z,9.10
2023-04-16T06:49:34.029Z,8.80
2023-04-16T06:52:05.686Z,9.00
2023-04-16T06:54:34.672Z,8.30
2023-04-16T06:57:03.054Z,8.80
2023-04-16T06:59:32.692Z,9.40
2023-04-16T07:04:30.756Z,9.60
2023-04-16T07:06:59.137Z,9.10
2023-04-16T07:09:27.723Z,9.70
2023-04-16T07:11:56.311Z,9.20
2023-04-16T07:14:24.690Z,9.80
2023-04-16T07:16:53.417Z,9.30
2023-04-16T07:19:21.958Z,10.40
2023-04-16T07:21:50.752Z,10.10
2023-04-16T07:24:19.129Z,10.20
2023-04-16T07:26:47.610Z,10.80
2023-04-16T07:29:15.890Z,10.80
2023-04-16T07:31:45.614Z,11.10
2023-04-16T07:34:13.980Z,11.10
2023-04-16T07:36:42.463Z,10.50
2023-04-16T07:39:11.865Z,10.50
2023-04-16T07:41:41.386Z,11.00
2023-04-16T07:44:09.770Z,11.40
2023-04-16T07:46:46.941Z,10.50
2023-04-16T07:49:16.147Z,10.20
2023-04-16T07:51:44.722Z,11.60
2023-04-16T07:54:13.224Z,11.50
2023-04-16T07:56:41.795Z,11.20
2023-04-16T07:59:22.139Z,12.30
2023-04-16T08:01:52.940Z,12.00
2023-04-16T08:04:25.678Z,12.20
2023-04-16T08:06:54.775Z,11.40
2023-04-16T08:09:24.004Z,10.10
2023-04-16T08:11:52.544Z,10.50
2023-04-16T08:14:21.454Z,12.10
2023-04-16T08:16:50.041Z,11.90
2023-04-16T08:19:18.921Z,11.30
2023-04-16T08:21:47.508Z,11.50
2023-04-16T08:24:15.990Z,12.20
2023-04-16T08:26:44.375Z,11.60
2023-04-16T08:29:12.930Z,10.60
2023-04-16T08:31:41.774Z,11.30
2023-04-16T08:34:11.782Z,11.90
2023-04-16T08:36:41.377Z,12.40
2023-04-16T08:39:10.093Z,11.00
2023-04-16T08:41:39.816Z,11.30
2023-04-16T08:44:09.168Z,11.30
2023-04-16T08:46:38.136Z,10.40
2023-04-16T08:49:07.216Z,12.50
2023-04-16T08:51:36.358Z,12.10
2023-04-16T08:54:12.469Z,12.70
2023-04-16T08:56:42.841Z,13.80
2023-04-16T08:59:12.503Z,12.90
2023-04-16T09:01:42.204Z,12.00
2023-04-16T09:04:11.278Z,13.30
2023-04-16T09:06:41.695Z,13.30
2023-04-16T09:09:10.254Z,12.10
2023-04-16T09:11:39.887Z,12.50
2023-04-16T09:14:10.016Z,12.90
2023-04-16T09:19:08.026Z,13.40
2023-04-16T09:21:37.205Z,13.90
2023-04-16T09:24:05.678Z,14.30
2023-04-16T09:26:34.874Z,14.30
2023-04-16T09:29:03.473Z,14.50
2023-04-16T09:31:31.775Z,13.80
2023-04-16T09:34:08.735Z,13.60
2023-04-16T09:36:39.052Z,14.30
2023-04-16T09:39:07.568Z,14.50
2023-04-16T09:41:39.882Z,15.50
2023-04-16T09:44:08.406Z,15.60
2023-04-16T09:46:41.297Z,15.00
2023-04-16T09:49:11.047Z,16.40
2023-04-16T09:51:49.834Z,17.10
2023-04-16T09:54:18.203Z,16.80
2023-04-16T09:56:47.085Z,16.20
2023-04-16T09:59:19.512Z,15.90
2023-04-16T10:01:49.946Z,17.20
2023-04-16T10:04:18.578Z,16.80
2023-04-16T10:07:04.191Z,15.60
2023-04-16T10:09:37.659Z,16.90
2023-04-16T10:12:07.061Z,17.60
2023-04-16T10:14:35.973Z,16.20
2023-04-16T10:17:06.624Z,12.70
2023-04-16T10:19:35.888Z,16.90
2023-04-16T10:22:05.261Z,18.60
2023-04-16T10:24:34.694Z,17.30
2023-04-16T10:27:03.283Z,21.00
2023-04-16T10:29:31.983Z,18.20
2023-04-16T10:32:00.857Z,23.00
2023-04-16T10:34:29.646Z,18.50
2023-04-16T10:36:58.031Z,16.20
2023-04-16T10:39:28.077Z,18.10
2023-04-16T10:44:37.812Z,16.00
2023-04-16T10:47:13.569Z,17.10
2023-04-16T10:49:42.757Z,17.70
2023-04-16T10:52:17.478Z,17.40
2023-04-16T10:54:46.954Z,17.50
2023-04-16T10:57:18.544Z,19.70
2023-04-16T10:59:47.031Z,20.50
2023-04-16T11:02:17.173Z,20.70
2023-04-16T11:07:18.624Z,23.40
2023-04-16T11:10:00.516Z,24.80
2023-04-16T11:12:29.616Z,24.20
2023-04-16T11:15:02.287Z,23.30
2023-04-16T11:17:36.701Z,27.00
2023-04-16T11:20:19.864Z,28.20
2023-04-16T11:22:53.853Z,27.70
2023-04-16T11:25:34.359Z,26.20
2023-04-16T11:28:02.901Z,28.30
2023-04-16T11:30:36.098Z,27.80
2023-04-16T11:33:06.046Z,28.00
2023-04-16T11:35:36.140Z,28.00
2023-04-16T11:38:07.719Z,27.10
2023-04-16T11:40:36.593Z,33.30
2023-04-16T11:43:13.666Z,27.90
2023-04-16T11:46:05.334Z,25.90
2023-04-16T11:48:52.383Z,23.20
2023-04-16T11:51:22.127Z,22.50
2023-04-16T11:53:54.404Z,25.30
2023-04-16T11:56:28.661Z,30.70
2023-04-16T11:59:19.224Z,27.10
2023-04-16T12:01:52.667Z,30.50
2023-04-16T12:04:25.197Z,35.90
2023-04-16T12:07:13.020Z,35.10
2023-04-16T12:09:42.892Z,33.90
2023-04-16T12:12:32.087Z,36.80
2023-04-16T12:15:04.036Z,37.30
2023-04-16T12:17:33.562Z,35.60
2023-04-16T12:20:06.363Z,33.70
2023-04-16T12:22:37.300Z,36.10
2023-04-16T12:25:11.994Z,36.40
2023-04-16T12:27:43.998Z,33.30
2023-04-16T12:30:13.262Z,33.90
2023-04-16T12:32:44.038Z,34.30
2023-04-16T12:35:12.839Z,35.40
2023-04-16T12:37:42.016Z,32.30
2023-04-16T12:40:11.177Z,32.00
2023-04-16T12:42:39.905Z,32.90
2023-04-16T12:45:09.119Z,34.10
2023-04-16T12:47:37.817Z,30.50
2023-04-16T12:50:07.426Z,30.70
2023-04-16T12:52:36.191Z,32.10
2023-04-16T12:55:05.287Z,33.70
2023-04-16T12:57:33.874Z,33.30
2023-04-16T13:00:02.368Z,31.30
2023-04-16T13:02:32.734Z,34.10
2023-04-16T13:05:01.799Z,34.20
2023-04-16T13:07:32.528Z,33.50
2023-04-16T13:10:01.213Z,30.00
2023-04-16T13:12:29.803Z,30.50
2023-04-16T13:14:58.275Z,31.80
2023-04-16T13:17:26.685Z,33.10
2023-04-16T13:19:55.238Z,33.80
2023-04-16T13:22:24.336Z,33.80
2023-04-16T13:24:53.124Z,34.70
2023-04-16T13:27:21.711Z,35.80
2023-04-16T13:29:50.095Z,32.20
2023-04-16T13:32:19.264Z,32.60
2023-04-16T13:34:47.872Z,25.80
2023-04-16T13:37:16.255Z,34.30
2023-04-16T13:39:45.877Z,33.40
2023-04-16T13:42:14.558Z,30.90
2023-04-16T13:44:42.930Z,31.80
2023-04-16T13:47:12.233Z,31.50
2023-04-16T13:49:40.721Z,20.20
2023-04-16T13:52:09.305Z,25.50
2023-04-16T13:54:38.396Z,26.90
2023-04-16T13:57:07.297Z,34.80
2023-04-16T13:59:36.591Z,31.90
2023-04-16T14:02:05.911Z,28.50
2023-04-16T14:04:34.481Z,29.10
2023-04-16T14:07:04.396Z,25.20
2023-04-16T14:09:32.775Z,23.70
2023-04-16T14:12:01.336Z,24.60
2023-04-16T14:14:30.359Z,25.00
2023-04-16T14:16:59.348Z,25.90
2023-04-16T14:19:27.730Z,23.80
2023-04-16T14:21:56.117Z,24.40
2023-04-16T14:24:24.592Z,25.60
2023-04-16T14:26:52.981Z,28.60
2023-04-16T14:29:21.380Z,26.50
2023-04-16T14:31:50.715Z,28.70
2023-04-16T14:34:19.348Z,29.30
2023-04-16T14:36:49.365Z,28.90
2023-04-16T14:41:46.430Z,27.90
2023-04-16T14:44:14.931Z,28.30
2023-04-16T14:46:44.030Z,32.20
2023-04-16T14:49:12.733Z,31.10
2023-04-16T14:51:41.491Z,24.80
2023-04-16T14:54:09.976Z,27.30
2023-04-16T14:56:38.475Z,26.30
2023-04-16T14:59:07.042Z,25.30
2023-04-16T15:01:36.507Z,23.20
2023-04-16T15:04:05.137Z,24.70
2023-04-16T15:06:34.134Z,24.20
2023-04-16T15:09:03.534Z,25.30
2023-04-16T15:11:32.017Z,24.00
2023-04-16T15:14:00.603Z,26.20
2023-04-16T15:16:29.054Z,26.40
2023-04-16T15:18:57.786Z,23.50
2023-04-16T15:21:26.878Z,23.70
2023-04-16T15:23:55.800Z,24.20
2023-04-16T15:26:24.147Z,27.70
2023-04-16T15:28:52.636Z,23.00
2023-04-16T15:31:22.172Z,25.50
2023-04-16T15:33:51.041Z,27.40
2023-04-16T15:36:19.929Z,25.10
2023-04-16T15:38:48.304Z,23.40
2023-04-16T15:41:16.688Z,23.90
2023-04-16T15:43:45.688Z,23.60
2023-04-16T15:46:15.231Z,23.00
2023-04-16T15:48:43.692Z,21.50
2023-04-16T15:51:13.079Z,22.50
2023-04-16T15:53:41.462Z,22.80
2023-04-16T15:56:09.844Z,20.40
2023-04-16T15:58:38.740Z,20.50
2023-04-16T16:01:07.116Z,23.00
2023-04-16T16:03:38.457Z,23.90
2023-04-16T16:06:09.101Z,20.70
2023-04-16T16:08:38.711Z,20.40
2023-04-16T16:11:07.397Z,22.60
2023-04-16T16:13:39.162Z,21.80
2023-04-16T16:16:08.072Z,19.90
2023-04-16T16:18:37.260Z,19.80
2023-04-16T16:21:06.456Z,19.80
2023-04-16T16:26:06.501Z,19.80
2023-04-16T16:28:38.087Z,20.40
2023-04-16T16:31:07.532Z,20.50
2023-04-16T16:33:37.370Z,20.50
2023-04-16T16:36:10.739Z,20.00
2023-04-16T16:38:43.041Z,20.00
2023-04-16T16:41:11.524Z,21.10
2023-04-16T16:43:39.900Z,20.50
2023-04-16T16:46:10.131Z,19.10
2023-04-16T16:48:38.541Z,20.70
2023-04-16T16:53:06.197Z,20.60
2023-04-16T16:55:35.838Z,20.30
2023-04-16T16:58:04.280Z,21.80
2023-04-16T17:00:32.648Z,22.70
2023-04-16T17:03:01.421Z,21.80
2023-04-16T17:05:30.150Z,20.40
2023-04-16T17:07:58.944Z,20.60
2023-04-16T17:10:27.397Z,21.70
2023-04-16T17:12:56.206Z,23.60
2023-04-16T17:15:24.694Z,22.30
2023-04-16T17:17:53.094Z,24.50
2023-04-16T17:20:21.671Z,25.40
2023-04-16T17:22:51.376Z,24.20
2023-04-16T17:25:20.062Z,24.20
2023-04-16T17:27:48.442Z,25.40
2023-04-16T17:30:17.138Z,28.40
2023-04-16T17:32:45.650Z,25.30
2023-04-16T17:35:14.061Z,25.80
2023-04-16T17:37:42.586Z,27.50
2023-04-16T17:40:14.565Z,27.80
2023-04-16T17:42:43.030Z,27.20
2023-04-16T17:45:11.948Z,25.60
2023-04-16T17:50:10.730Z,26.20
2023-04-16T17:52:39.316Z,25.70
2023-04-16T17:55:08.060Z,23.70
2023-04-16T17:57:37.439Z,26.50
2023-04-16T18:00:08.254Z,26.10
2023-04-16T18:02:41.218Z,26.20
2023-04-16T18:05:10.250Z,25.20
2023-04-16T18:07:39.333Z,25.20
2023-04-16T18:10:09.034Z,27.10
2023-04-16T18:12:37.526Z,25.50
2023-04-16T18:15:07.336Z,24.40
2023-04-16T18:17:35.925Z,25.50
2023-04-16T18:25:05.492Z,24.60
2023-04-16T18:27:34.060Z,26.50
2023-04-16T18:30:04.464Z,26.50
2023-04-16T18:32:33.777Z,24.10
2023-04-16T18:35:02.383Z,24.80
2023-04-16T18:37:31.158Z,24.00
2023-04-16T18:39:59.952Z,25.90
2023-04-16T18:42:28.536Z,24.90
2023-04-16T18:44:57.122Z,24.20
2023-04-16T18:47:25.742Z,24.40
2023-04-16T18:49:54.191Z,27.00
2023-04-16T18:52:22.778Z,24.40
2023-04-16T18:54:51.156Z,23.20
2023-04-16T18:57:19.640Z,25.10
2023-04-16T18:59:48.535Z,26.60
2023-04-16T19:02:16.982Z,24.60
2023-04-16T19:04:45.397Z,22.70
2023-04-16T19:07:13.783Z,24.30
2023-04-16T19:09:43.417Z,27.60
2023-04-16T19:12:11.772Z,27.40
2023-04-16T19:14:40.666Z,26.80
2023-04-16T19:19:39.071Z,28.40
2023-04-16T19:22:07.857Z,26.90
2023-04-16T19:24:36.444Z,25.50
2023-04-16T19:27:04.825Z,25.00
2023-04-16T19:29:35.065Z,27.00
2023-04-16T19:32:03.684Z,27.90
2023-04-16T19:34:33.664Z,24.20
2023-04-16T19:37:02.057Z,26.40
2023-04-16T19:39:31.953Z,26.40
2023-04-16T19:42:01.980Z,27.10
2023-04-16T19:44:30.765Z,26.30
2023-04-16T19:46:59.563Z,26.90
2023-04-16T19:49:34.603Z,26.70
2023-04-16T19:52:03.080Z,28.40
2023-04-16T19:54:33.857Z,26.30
2023-04-16T19:57:02.403Z,25.40
2023-04-16T19:59:32.520Z,27.10
2023-04-16T20:02:01.610Z,29.50
2023-04-16T20:04:30.219Z,28.10
2023-04-16T20:06:58.898Z,25.00
2023-04-16T20:09:27.273Z,26.70
2023-04-16T20:11:55.766Z,28.20
2023-04-16T20:14:24.145Z,28.70
2023-04-16T20:16:53.076Z,24.40
2023-04-16T20:19:22.333Z,26.30
2023-04-16T20:21:51.017Z,28.90
2023-04-16T20:24:19.407Z,27.70
2023-04-16T20:26:47.893Z,24.80
2023-04-16T20:29:16.775Z,25.40
2023-04-16T20:31:46.490Z,21.10
2023-04-16T20:34:14.973Z,28.50
2023-04-16T20:36:43.672Z,26.20
2023-04-16T20:39:12.820Z,25.20
2023-04-16T20:41:44.533Z,26.30
2023-04-16T20:44:18.378Z,26.50
2023-04-16T20:46:50.051Z,26.00
2023-04-16T20:49:18.778Z,22.80
2023-04-16T20:51:47.058Z,23.40
2023-04-16T20:54:15.436Z,23.70
2023-04-16T20:56:45.076Z,24.00
2023-04-16T20:59:13.741Z,23.70
2023-04-16T21:01:42.809Z,21.30
2023-04-16T21:04:11.492Z,21.20
2023-04-16T21:06:43.181Z,22.00
2023-04-16T21:09:11.924Z,22.80
2023-04-16T21:11:41.886Z,22.20
2023-04-16T21:14:10.781Z,21.50
2023-04-16T21:16:40.697Z,23.00
2023-04-16T21:19:09.345Z,25.80
2023-04-16T21:21:39.100Z,24.40
2023-04-16T21:24:07.789Z,22.60
2023-04-16T21:26:36.216Z,21.30
2023-04-16T21:29:04.760Z,21.30
2023-04-16T21:31:33.172Z,22.40
2023-04-16T21:34:01.627Z,22.20
2023-04-16T21:36:32.354Z,22.00
2023-04-16T21:39:01.143Z,20.30
2023-04-16T21:41:29.763Z,20.20
2023-04-16T21:43:58.117Z,21.30
2023-04-16T21:46:27.326Z,21.10
2023-04-16T21:48:55.701Z,20.50
2023-04-16T21:51:29.619Z,20.30
2023-04-16T21:53:58.087Z,20.20
2023-04-16T21:56:26.774Z,21.30
2023-04-16T21:58:55.055Z,22.20
2023-04-16T22:01:23.477Z,21.20
2023-04-16T22:03:52.378Z,18.40
2023-04-16T22:06:20.930Z,20.90
2023-04-16T22:08:50.316Z,22.00
2023-04-16T22:13:48.543Z,22.00
2023-04-16T22:16:17.211Z,20.70
2023-04-16T22:18:46.529Z,21.10
2023-04-16T22:21:14.896Z,21.30
2023-04-16T22:23:43.268Z,22.60
2023-04-16T22:26:13.087Z,22.60
2023-04-16T22:28:41.869Z,22.40
2023-04-16T22:31:10.355Z,22.10
2023-04-16T22:33:38.938Z,22.40
2023-04-16T22:36:08.543Z,24.40
2023-04-16T22:38:39.094Z,24.60
2023-04-16T22:41:07.572Z,23.00
2023-04-16T22:43:37.482Z,22.50
2023-04-16T22:46:06.879Z,22.60
2023-04-16T22:51:08.363Z,23.80
2023-04-16T22:53:37.806Z,21.00
2023-04-16T22:56:06.794Z,20.60
2023-04-16T22:58:35.240Z,21.30
2023-04-16T23:01:03.876Z,21.60
2023-04-16T23:03:32.775Z,22.60
2023-04-16T23:06:01.202Z,21.60
2023-04-16T23:08:30.507Z,18.70
2023-04-16T23:10:59.089Z,19.50
2023-04-16T23:13:27.680Z,20.50
2023-04-16T23:15:56.302Z,19.90
2023-04-16T23:18:25.768Z,20.30
2023-04-16T23:20:54.253Z,18.30
2023-04-16T23:23:22.936Z,18.80
2023-04-16T23:25:54.494Z,19.50
2023-04-16T23:28:23.082Z,20.30
2023-04-16T23:30:53.137Z,18.60
2023-04-16T23:33:21.893Z,17.00
2023-04-16T23:35:50.284Z,17.50
2023-04-16T23:38:18.861Z,17.30
2023-04-16T23:40:47.235Z,17.80
2023-04-16T23:43:16.137Z,17.80
2023-04-16T23:45:44.551Z,16.50
2023-04-16T23:48:13.196Z,17.30
2023-04-16T23:50:41.689Z,16.60
2023-04-16T23:53:10.574Z,18.00
2023-04-16T23:55:38.955Z,16.90
2023-04-16T23:58:07.337Z,15.80
